Time;durP1;ratioP1;P1;durP2;ratioP2;P2;SDS_P1;SDS_P2;PMS_P1;PMS_P2;Temp;Humidity;BMP_temperature;BMP_pressure;BME280_temperature;BME280_humidity;BME280_pressure;Samples;Min_cycle;Max_cycle;Signal;HPM_P1;HPM_P2
2023/08/29 00:01:38;;;;;;;2.70;1.67;;;14.40;99.90;;;;;;4869634;29;20102;-74
2023/08/29 00:04:04;;;;;;;;;;;14.40;99.90;;;;;;4853812;29;20100;-73
2023/08/29 00:06:29;;;;;;;3.25;1.77;;;14.50;99.90;;;;;;4873242;29;20139;-75
2023/08/29 00:08:58;;;;;;;2.97;1.63;;;14.50;99.90;;;;;;4873513;29;20096;-74
2023/08/29 00:11:24;;;;;;;;;;;14.50;99.90;;;;;;4872953;29;20224;-74
2023/08/29 00:13:52;;;;;;;4.60;1.60;;;14.50;99.90;;;;;;4873149;29;19922;-74
2023/08/29 00:16:18;;;;;;;3.00;1.90;;;14.50;99.90;;;;;;4841137;29;20041;-76
2023/08/29 00:18:44;;;;;;;5.32;1.70;;;14.60;99.90;;;;;;4841219;29;20047;-74
2023/08/29 00:21:22;;;;;;;4.18;1.60;;;14.60;99.90;;;;;;4873102;29;20037;-75
2023/08/29 00:26:49;;;;;;;3.45;1.55;;;14.50;99.90;;;;;;4860900;29;20050;-74
2023/08/29 00:29:15;;;;;;;;;;;14.50;99.90;;;;;;4873782;29;20037;-74
2023/08/29 06:56:30;;;;;;;10.10;8.63;;;14.70;99.90;;;;;;5743852;23;20082;-74
2023/08/29 06:58:56;;;;;;;10.35;8.63;;;14.80;99.90;;;;;;4926434;29;20289;-74
2023/08/29 07:01:22;;;;;;;13.55;8.57;;;14.90;99.90;;;;;;4916256;29;20087;-73
2023/08/29 07:03:50;;;;;;;10.10;7.78;;;14.90;99.90;;;;;;4918491;29;20058;-73
2023/08/29 07:06:16;;;;;;;;;;;15.00;99.90;;;;;;4909458;29;20025;-74
2023/08/29 07:08:41;;;;;;;11.35;7.05;;;15.00;99.90;;;;;;4907514;29;19908;-74
2023/08/29 07:11:07;;;;;;;9.90;7.55;;;15.10;99.90;;;;;;4910533;29;20035;-74
2023/08/29 07:13:33;;;;;;;9.30;7.53;;;15.20;99.90;;;;;;4908745;29;20217;-73
2023/08/29 07:15:59;;;;;;;10.63;7.82;;;15.20;99.90;;;;;;4925171;29;20333;-74
2023/08/29 07:18:24;;;;;;;9.40;7.80;;;15.30;99.90;;;;;;4926318;29;20032;-74
2023/08/29 07:21:11;;;;;;;9.48;7.95;;;15.30;99.90;;;;;;4926113;29;20032;-76
2023/08/29 07:23:37;;;;;;;8.37;6.80;;;15.30;99.90;;;;;;4925971;29;20043;-74
2023/08/29 07:26:06;;;;;;;8.48;6.97;;;15.50;99.90;;;;;;4909117;29;20040;-76
2023/08/29 07:28:32;;;;;;;7.93;6.45;;;15.50;99.90;;;;;;4926074;29;20225;-75
2023/08/29 07:31:12;;;;;;;7.97;6.65;;;15.60;99.90;;;;;;4885542;29;20060;-74
2023/08/29 07:34:08;;;;;;;8.93;6.32;;;15.70;99.90;;;;;;4852693;29;20292;-76
2023/08/29 07:36:54;;;;;;;8.70;6.40;;;15.70;99.90;;;;;;4852822;29;20382;-75
2023/08/29 07:39:26;;;;;;;11.10;6.28;;;15.80;99.90;;;;;;4852212;29;20033;-76
2023/08/29 07:42:01;;;;;;;8.13;6.25;;;15.70;99.90;;;;;;4867731;29;20046;-75
2023/08/29 07:44:33;;;;;;;6.80;5.90;;;15.70;99.90;;;;;;4865035;29;20025;-73
2023/08/29 07:46:58;;;;;;;8.40;5.65;;;15.60;99.90;;;;;;4886290;29;20132;-74
2023/08/29 07:49:24;;;;;;;8.23;5.82;;;15.60;99.90;;;;;;4886683;29;20048;-74
2023/08/29 07:51:52;;;;;;;8.88;6.03;;;15.60;99.90;;;;;;4870108;29;20045;-73
2023/08/29 07:54:27;;;;;;;7.50;5.97;;;15.60;99.90;;;;;;4871021;29;20259;-73
2023/08/29 07:56:53;;;;;;;7.22;6.00;;;15.50;99.90;;;;;;4892421;29;20084;-72
2023/08/29 07:59:19;;;;;;;8.43;6.72;;;15.50;99.90;;;;;;4873325;29;20293;-72
2023/08/29 08:01:46;;;;;;;7.40;5.97;;;15.50;99.90;;;;;;4883323;29;20045;-73
2023/08/29 08:04:30;;;;;;;7.22;6.50;;;15.40;99.90;;;;;;4919658;29;20013;-72
2023/08/29 08:07:02;;;;;;;9.98;7.30;;;15.50;99.90;;;;;;4889931;29;20043;-73
2023/08/29 08:09:28;;;;;;;7.70;6.53;;;15.40;99.90;;;;;;4906901;29;20040;-73
2023/08/29 08:12:19;;;;;;;9.82;7.18;;;15.40;99.90;;;;;;4916349;29;20087;-74
2023/08/29 08:14:45;;;;;;;7.65;6.85;;;15.40;99.90;;;;;;4926162;29;20031;-73
2023/08/29 08:17:10;;;;;;;10.65;7.50;;;15.40;99.90;;;;;;4925102;29;20332;-74
2023/08/29 08:19:36;;;;;;;11.15;7.07;;;15.50;99.90;;;;;;4926039;29;20028;-74
2023/08/29 08:22:05;;;;;;;7.55;6.53;;;15.50;99.90;;;;;;4925334;29;20040;-74
2023/08/29 08:24:33;;;;;;;8.85;7.00;;;15.70;99.90;;;;;;4925500;29;20031;-74
2023/08/29 08:26:59;;;;;;;8.32;6.43;;;15.70;99.90;;;;;;4922684;29;20043;-75
2023/08/29 08:29:29;;;;;;;7.78;6.43;;;15.80;99.90;;;;;;4877203;29;20100;-75
2023/08/29 08:31:54;;;;;;;8.02;6.20;;;16.00;99.90;;;;;;4893151;29;20055;-75
2023/08/29 08:34:23;;;;;;;6.90;6.20;;;16.20;99.90;;;;;;4893515;29;20310;-76
2023/08/29 08:36:51;;;;;;;6.78;5.68;;;16.40;99.90;;;;;;4901974;29;20044;-77
2023/08/29 08:39:17;;;;;;;8.82;6.18;;;16.40;99.90;;;;;;4918385;29;20068;-75
2023/08/29 08:41:43;;;;;;;7.40;6.20;;;16.30;99.90;;;;;;4913069;29;20036;-78
2023/08/29 08:44:14;;;;;;;8.30;6.28;;;16.40;99.90;;;;;;4909991;29;20157;-76
2023/08/29 08:46:40;;;;;;;7.07;6.35;;;16.30;99.90;;;;;;4912965;29;20115;-74
2023/08/29 08:49:06;;;;;;;7.10;6.32;;;16.30;99.90;;;;;;4909636;29;20028;-75
2023/08/29 08:51:33;;;;;;;7.50;6.65;;;16.10;99.90;;;;;;4893359;29;20271;-74
2023/08/29 08:54:00;;;;;;;10.57;7.53;;;15.90;99.90;;;;;;4892784;29;20270;-74
2023/08/29 08:56:32;;;;;;;8.15;6.65;;;15.90;99.90;;;;;;4893063;29;20378;-73
2023/08/29 08:59:00;;;;;;;9.38;6.82;;;16.00;99.90;;;;;;4912429;29;20326;-74
2023/08/29 09:01:32;;;;;;;7.88;6.82;;;16.30;99.90;;;;;;4909838;29;20052;-74
2023/08/29 09:03:57;;;;;;;7.78;6.55;;;16.40;99.90;;;;;;4923930;29;20230;-73
2023/08/29 09:06:32;;;;;;;8.77;5.82;;;16.70;99.90;;;;;;4928870;29;20028;-75
2023/08/29 09:09:27;;;;;;;6.95;6.28;;;16.90;99.90;;;;;;4931103;29;20042;-74
2023/08/29 09:12:05;;;;;;;8.27;6.60;;;17.00;99.90;;;;;;4920990;29;20036;-74
2023/08/29 09:14:44;;;;;;;8.05;6.75;;;17.20;99.90;;;;;;4934920;29;20036;-75
2023/08/29 09:17:10;;;;;;;6.88;6.15;;;17.40;99.90;;;;;;4937770;29;20016;-75
2023/08/29 09:20:05;;;;;;;7.80;6.47;;;17.40;99.90;;;;;;4942044;29;20381;-75
2023/08/29 09:22:34;;;;;;;6.70;6.00;;;17.30;99.90;;;;;;4947382;29;20036;-75
2023/08/29 09:25:09;;;;;;;10.48;6.50;;;17.00;99.90;;;;;;4927709;29;20043;-75
2023/08/29 09:27:47;;;;;;;7.68;6.13;;;16.80;99.90;;;;;;4929765;29;20120;-75
2023/08/29 09:30:19;;;;;;;7.53;6.72;;;16.70;99.90;;;;;;4908766;29;20680;-76
2023/08/29 09:32:52;;;;;;;7.90;6.30;;;16.70;99.90;;;;;;4909302;29;20051;-75
2023/08/29 09:35:25;;;;;;;8.50;6.30;;;16.60;99.90;;;;;;4891573;29;20407;-74
2023/08/29 09:37:59;;;;;;;8.57;6.85;;;16.50;99.90;;;;;;4908743;29;20052;-76
2023/08/29 09:40:56;;;;;;;9.65;7.28;;;16.40;99.90;;;;;;4909204;29;20330;-75
2023/08/29 09:43:22;;;;;;;8.00;7.20;;;16.30;99.90;;;;;;4911038;29;20068;-75
2023/08/29 09:45:52;;;;;;;10.77;7.53;;;16.20;99.90;;;;;;4910806;29;20037;-74
2023/08/29 09:48:27;;;;;;;10.65;8.32;;;16.10;99.90;;;;;;4908783;29;20134;-75
2023/08/29 09:50:58;;;;;;;9.50;8.15;;;16.20;99.90;;;;;;4892009;29;20067;-75
2023/08/29 09:53:31;;;;;;;8.55;7.65;;;16.10;99.90;;;;;;4891458;29;20358;-76
2023/08/29 09:56:10;;;;;;;10.00;8.57;;;16.30;99.90;;;;;;4911247;29;20387;-76
2023/08/29 09:58:38;;;;;;;9.45;8.55;;;16.30;99.90;;;;;;4908682;29;20040;-76
2023/08/29 10:01:26;;;;;;;9.35;8.45;;;16.30;99.90;;;;;;4891479;29;20040;-75
2023/08/29 10:04:12;;;;;;;9.65;8.15;;;16.20;99.90;;;;;;4930931;29;20038;-75
2023/08/29 10:06:44;;;;;;;10.98;8.38;;;16.20;99.90;;;;;;4927043;29;20204;-75
2023/08/29 10:09:30;;;;;;;9.82;8.13;;;16.20;99.90;;;;;;4907680;29;20246;-75
2023/08/29 10:12:00;;;;;;;15.10;8.77;;;16.10;99.90;;;;;;4927023;29;20055;-75
2023/08/29 10:14:30;;;;;;;10.90;8.55;;;16.30;99.90;;;;;;4910345;29;20095;-75
2023/08/29 10:17:01;;;;;;;9.30;8.35;;;16.40;99.90;;;;;;4912551;29;20187;-76
2023/08/29 10:19:29;;;;;;;9.40;8.35;;;16.70;99.90;;;;;;4905034;29;20040;-75
2023/08/29 10:21:59;;;;;;;11.07;8.73;;;16.90;99.90;;;;;;4891715;29;20104;-75
2023/08/29 10:24:26;;;;;;;8.48;7.47;;;17.20;99.90;;;;;;4919102;29;20198;-75
2023/08/29 10:26:55;;;;;;;11.73;7.78;;;17.60;99.90;;;;;;4924886;29;20095;-75
2023/08/29 10:29:34;;;;;;;9.45;7.15;;;17.90;99.90;;;;;;4900746;29;20044;-75
2023/08/29 10:32:02;;;;;;;8.65;6.53;;;18.20;99.90;;;;;;4926386;29;20036;-75
2023/08/29 10:34:31;;;;;;;12.35;6.63;;;18.40;99.90;;;;;;4915268;29;20203;-75
2023/08/29 10:37:00;;;;;;;6.68;6.07;;;18.60;99.90;;;;;;4900756;29;20163;-75
2023/08/29 10:39:27;;;;;;;7.57;6.35;;;18.90;99.90;;;;;;4916400;29;20040;-75
2023/08/29 10:41:54;;;;;;;7.55;5.22;;;18.90;99.90;;;;;;4898009;29;20021;-75
2023/08/29 10:44:32;;;;;;;6.73;5.97;;;19.00;99.90;;;;;;4876034;29;20115;-75
2023/08/29 10:47:26;;;;;;;6.20;5.27;;;18.80;99.90;;;;;;4920186;29;20464;-75
2023/08/29 10:49:59;;;;;;;6.00;5.40;;;18.80;99.90;;;;;;4930593;29;20523;-75
2023/08/29 10:52:42;;;;;;;6.82;6.13;;;18.60;99.90;;;;;;4940163;29;20335;-75
2023/08/29 10:55:25;;;;;;;5.45;4.65;;;18.50;99.90;;;;;;4890307;29;20374;-75
2023/08/29 10:57:51;;;;;;;5.75;4.88;;;18.40;99.90;;;;;;4910641;29;20074;-75
2023/08/29 11:00:37;;;;;;;5.18;4.68;;;18.40;99.90;;;;;;4926387;29;20067;-74
2023/08/29 11:03:03;;;;;;;7.40;5.28;;;18.20;99.90;;;;;;4899027;29;20050;-74
2023/08/29 11:05:30;;;;;;;6.97;5.38;;;18.00;99.90;;;;;;4926871;29;20242;-74
2023/08/29 11:08:22;;;;;;;6.40;5.47;;;17.80;99.90;;;;;;4926421;29;20108;-75
2023/08/29 11:11:13;;;;;;;6.90;6.20;;;17.70;99.90;;;;;;4909792;29;20270;-74
2023/08/29 11:13:58;;;;;;;6.75;6.15;;;17.60;99.90;;;;;;4909615;29;20096;-73
2023/08/29 11:16:25;;;;;;;7.30;6.60;;;17.60;99.90;;;;;;4911194;29;20044;-74
2023/08/29 11:19:24;;;;;;;7.60;6.32;;;17.60;99.90;;;;;;4907240;29;20064;-74
2023/08/29 11:21:52;;;;;;;6.72;6.05;;;17.70;99.90;;;;;;4891482;29;20275;-74
2023/08/29 11:24:20;;;;;;;7.88;6.43;;;18.00;99.90;;;;;;4906657;29;20103;-74
2023/08/29 11:26:49;;;;;;;6.93;5.82;;;18.40;99.90;;;;;;4907023;29;20037;-75
2023/08/29 11:29:15;;;;;;;7.10;5.22;;;18.80;99.90;;;;;;4890077;29;20104;-74
2023/08/29 11:31:45;;;;;;;5.93;5.32;;;19.40;99.90;;;;;;4907044;29;20040;-76
2023/08/29 11:34:18;;;;;;;6.97;5.68;;;19.80;99.90;;;;;;4907101;29;20041;-75
2023/08/29 11:36:50;;;;;;;5.75;5.15;;;20.20;99.90;;;;;;4890545;29;20373;-74
2023/08/29 11:39:28;;;;;;;6.82;5.13;;;20.40;99.90;;;;;;4890201;29;20611;-75
2023/08/29 11:42:20;;;;;;;6.90;5.28;;;20.60;99.90;;;;;;4907025;29;20036;-73
2023/08/29 11:44:46;;;;;;;8.27;5.60;;;20.50;99.90;;;;;;4890759;29;20080;-73
2023/08/29 11:47:16;;;;;;;6.73;6.13;;;20.30;99.90;;;;;;4874645;29;20025;-72
2023/08/29 11:49:42;;;;;;;6.85;5.72;;;20.00;99.90;;;;;;4890354;29;20091;-75
2023/08/29 11:52:31;;;;;;;8.80;5.85;;;19.80;99.90;;;;;;4889672;29;20084;-75
2023/08/29 11:54:57;;;;;;;10.02;6.10;;;19.70;99.90;;;;;;4890061;29;20041;-79
2023/08/29 12:00:27;;;;;;;8.73;7.05;;;19.20;99.90;;;;;;4907136;29;20038;-74
2023/08/29 12:06:26;;;;;;;9.77;8.05;;;18.60;99.90;;;;;;4921431;29;20345;-75
2023/08/29 12:08:52;;;;;;;7.38;6.38;;;18.30;99.90;;;;;;4897117;29;20055;-74
2023/08/29 12:11:43;;;;;;;8.95;8.15;;;18.20;99.90;;;;;;4910818;29;20135;-74
2023/08/29 12:14:48;;;;;;;7.90;7.10;;;18.10;99.90;;;;;;4910600;29;20076;-74
2023/08/29 12:18:14;;;;;;;9.00;8.10;;;18.00;99.90;;;;;;4910793;29;20259;-74
2023/08/29 12:20:40;;;;;;;9.15;7.90;;;17.80;99.90;;;;;;4911208;29;20037;-74
2023/08/29 12:23:14;;;;;;;10.98;8.25;;;17.70;99.90;;;;;;4913124;29;20084;-74
2023/08/29 12:25:58;;;;;;;8.93;8.03;;;17.50;99.90;;;;;;4917490;29;20040;-73
2023/08/29 12:28:31;;;;;;;9.75;8.75;;;17.50;99.90;;;;;;4879992;29;20036;-74
2023/08/29 12:31:03;;;;;;;9.98;9.00;;;17.50;99.90;;;;;;4910184;29;20037;-75
2023/08/29 12:33:41;;;;;;;10.57;9.45;;;17.50;99.90;;;;;;4922377;29;20109;-75
2023/08/29 12:36:10;;;;;;;9.32;8.40;;;17.60;99.90;;;;;;4936425;29;20036;-75
2023/08/29 12:39:08;;;;;;;9.35;8.48;;;17.80;99.90;;;;;;4928070;29;20030;-76
2023/08/29 12:41:36;;;;;;;7.50;6.80;;;17.90;99.90;;;;;;4928171;29;20036;-76
2023/08/29 12:44:14;;;;;;;7.57;6.80;;;18.00;99.90;;;;;;4928803;29;20242;-75
2023/08/29 12:47:39;;;;;;;7.43;6.55;;;17.90;99.90;;;;;;4912562;29;20039;-74
2023/08/29 12:50:05;;;;;;;7.90;6.00;;;17.90;99.90;;;;;;4916704;29;20224;-76
2023/08/29 13:07:58;;;;;;;8.25;4.72;;;18.00;99.90;;;;;;4889203;29;20062;-75
2023/08/29 13:10:56;;;;;;;5.47;4.10;;;18.50;99.90;;;;;;4870206;29;20116;-74
2023/08/29 13:13:28;;;;;;;5.45;3.47;;;19.00;99.90;;;;;;4853666;29;20049;-74
2023/08/29 13:16:00;;;;;;;5.32;3.33;;;19.00;99.90;;;;;;4869993;29;20123;-75
2023/08/29 13:18:26;;;;;;;5.18;3.00;;;19.10;99.90;;;;;;4870230;29;20045;-74
2023/08/29 13:20:51;;;;;;;5.20;3.28;;;19.30;99.90;;;;;;4870204;29;20069;-75
2023/08/29 13:23:17;;;;;;;4.20;3.65;;;19.50;99.90;;;;;;4869238;29;20059;-77
2023/08/29 13:25:46;;;;;;;5.10;3.75;;;19.70;99.90;;;;;;4854047;29;20052;-74
2023/08/29 13:28:11;;;;;;;6.05;3.92;;;19.70;99.90;;;;;;4869234;29;20112;-74
2023/08/29 13:30:37;;;;;;;4.07;3.25;;;19.70;99.90;;;;;;4853467;29;20045;-74
2023/08/29 13:33:06;;;;;;;4.50;3.65;;;19.90;99.90;;;;;;4869767;29;20093;-75
2023/08/29 13:35:32;;;;;;;4.25;3.28;;;20.00;99.90;;;;;;4870200;29;20121;-74
2023/08/29 13:38:03;;;;;;;5.05;3.50;;;20.00;99.90;;;;;;4854327;29;20033;-75
2023/08/29 13:40:35;;;;;;;5.25;3.58;;;20.10;99.80;;;;;;4888324;29;20090;-74
2023/08/29 13:43:01;;;;;;;5.60;3.28;;;20.20;99.70;;;;;;4896626;29;20056;-74
2023/08/29 13:45:26;;;;;;;7.45;3.70;;;20.00;99.60;;;;;;4912038;29;20040;-74
2023/08/29 13:47:55;;;;;;;5.95;3.47;;;20.00;99.90;;;;;;4927907;29;20032;-74
2023/08/29 13:50:21;;;;;;;6.80;3.90;;;20.30;99.20;;;;;;4941230;29;20139;-73
2023/08/29 13:52:47;;;;;;;5.78;3.92;;;20.00;99.90;;;;;;4946216;29;20044;-74
2023/08/29 13:55:12;;;;;;;5.45;3.95;;;19.90;99.90;;;;;;4946090;29;20325;-75
2023/08/29 13:57:44;;;;;;;5.75;4.13;;;19.80;99.90;;;;;;4946564;29;20035;-79
2023/08/29 14:00:11;;;;;;;6.93;3.60;;;20.00;99.90;;;;;;4946464;29;20325;-75
2023/08/29 14:02:43;;;;;;;5.13;3.85;;;20.20;99.90;;;;;;4946749;29;20246;-76
2023/08/29 14:05:18;;;;;;;6.00;4.05;;;20.20;99.30;;;;;;4910830;29;20028;-75
2023/08/29 14:07:44;;;;;;;5.18;3.70;;;20.10;99.70;;;;;;4927810;29;20102;-75
2023/08/29 14:10:10;;;;;;;5.90;3.90;;;20.00;99.40;;;;;;4909522;29;20036;-75
2023/08/29 14:12:41;;;;;;;5.78;3.10;;;20.00;99.80;;;;;;4927150;29;20321;-76
2023/08/29 14:15:07;;;;;;;4.43;2.50;;;20.10;99.90;;;;;;4909886;29;20024;-75
2023/08/29 14:17:33;;;;;;;4.72;2.08;;;20.20;98.20;;;;;;4946098;29;20337;-75
2023/08/29 14:20:04;;;;;;;4.38;2.38;;;20.30;97.50;;;;;;4945670;29;20091;-76
2023/08/29 14:22:30;;;;;;;3.63;2.05;;;20.70;99.00;;;;;;4937216;29;20048;-75
2023/08/29 14:24:57;;;;;;;3.92;2.30;;;20.70;97.40;;;;;;4927097;29;20328;-75
2023/08/29 14:27:23;;;;;;;3.92;2.30;;;20.60;96.90;;;;;;4910354;29;20027;-76
2023/08/29 14:29:49;;;;;;;3.45;2.20;;;20.70;97.10;;;;;;4927027;29;20063;-76
2023/08/29 14:32:14;;;;;;;3.72;1.65;;;20.90;97.00;;;;;;4926767;29;20044;-75
2023/08/29 14:34:40;;;;;;;4.28;1.90;;;21.00;96.10;;;;;;4926910;29;20198;-75
2023/08/29 14:37:06;;;;;;;3.15;2.00;;;21.00;96.10;;;;;;4926544;29;20032;-76
2023/08/29 14:39:31;;;;;;;2.95;2.30;;;21.20;96.00;;;;;;4910316;29;20179;-76
2023/08/29 14:41:57;;;;;;;5.45;2.05;;;21.50;94.90;;;;;;4926564;29;20321;-76
2023/08/29 14:44:23;;;;;;;2.70;1.90;;;21.50;95.10;;;;;;4927189;29;20035;-75
2023/08/29 14:46:49;;;;;;;4.13;2.10;;;21.50;95.10;;;;;;4926678;29;20308;-75
2023/08/29 14:49:15;;;;;;;5.25;2.70;;;21.30;94.90;;;;;;4931104;29;20079;-76
2023/08/29 14:51:44;;;;;;;3.97;2.35;;;21.20;94.70;;;;;;4928788;29;20027;-75
2023/08/29 14:54:12;;;;;;;3.40;2.00;;;21.30;94.30;;;;;;4945330;29;20321;-74
2023/08/29 14:56:38;;;;;;;4.00;2.25;;;21.10;95.10;;;;;;4945432;29;20095;-74
2023/08/29 14:59:07;;;;;;;3.40;2.05;;;20.90;94.40;;;;;;4945012;29;20356;-76
2023/08/29 15:05:21;;;;;;;2.95;1.40;;;20.80;94.80;;;;;;4868187;29;20050;-76
2023/08/29 15:07:59;;;;;;;4.05;1.50;;;20.30;94.70;;;;;;4868712;29;20108;-75
2023/08/29 15:10:25;;;;;;;3.88;1.33;;;20.20;94.80;;;;;;4868444;29;20124;-75
2023/08/29 15:12:56;;;;;;;2.25;1.30;;;20.00;94.40;;;;;;4836007;29;20045;-75
2023/08/29 15:15:24;;;;;;;2.47;1.30;;;19.80;94.80;;;;;;4854087;29;20240;-75
2023/08/29 15:17:53;;;;;;;2.97;1.20;;;20.00;94.70;;;;;;4890102;29;20036;-75
2023/08/29 15:20:19;;;;;;;2.95;1.15;;;20.10;94.60;;;;;;4904911;29;20096;-75
2023/08/29 15:22:45;;;;;;;4.72;1.60;;;20.10;94.20;;;;;;4894781;29;20112;-75
2023/08/29 15:25:13;;;;;;;2.50;1.40;;;20.20;94.80;;;;;;4886335;29;20280;-77
2023/08/29 15:27:47;;;;;;;2.53;1.08;;;20.30;95.50;;;;;;4887229;29;20036;-74
2023/08/29 15:30:13;;;;;;;2.80;1.20;;;20.50;96.10;;;;;;4886778;29;20146;-74
2023/08/29 15:33:04;;;;;;;2.97;1.17;;;20.50;95.30;;;;;;4886888;29;20230;-73
2023/08/29 15:35:44;;;;;;;3.20;1.40;;;20.50;94.20;;;;;;4870746;29;20173;-75
2023/08/29 15:38:21;;;;;;;3.40;1.20;;;20.50;94.30;;;;;;4886383;29;20378;-74
2023/08/29 15:41:04;;;;;;;2.25;0.90;;;20.40;93.40;;;;;;4886110;29;20110;-73
2023/08/29 15:43:53;;;;;;;2.10;1.02;;;20.30;93.80;;;;;;4944066;29;20099;-73
2023/08/29 15:46:22;;;;;;;2.13;1.20;;;20.20;95.30;;;;;;4944943;29;20039;-74
2023/08/29 15:49:25;;;;;;;2.85;1.48;;;20.10;95.80;;;;;;4942897;29;20107;-74
2023/08/29 15:51:56;;;;;;;3.42;1.30;;;20.10;94.60;;;;;;4927252;29;20043;-75
2023/08/29 15:54:22;;;;;;;2.65;1.00;;;20.10;93.80;;;;;;4906401;29;20340;-74
2023/08/29 15:56:47;;;;;;;2.15;0.90;;;19.90;93.30;;;;;;4943136;29;20032;-74
2023/08/29 16:03:21;;;;;;;2.78;1.20;;;20.00;94.50;;;;;;4867836;29;20341;-75
2023/08/29 16:06:30;;;;;;;3.97;0.95;;;19.70;93.50;;;;;;4863522;29;20037;-75
2023/08/29 16:08:58;;;;;;;3.28;1.27;;;19.70;94.00;;;;;;4852906;29;20295;-74
2023/08/29 16:11:33;;;;;;;2.90;1.20;;;19.70;94.00;;;;;;4868085;29;20033;-74
2023/08/29 16:14:03;;;;;;;2.92;1.23;;;19.80;94.30;;;;;;4868036;29;20064;-75
2023/08/29 16:16:34;;;;;;;3.33;1.30;;;19.80;95.00;;;;;;4871626;29;20044;-74
2023/08/29 16:19:03;;;;;;;2.45;1.00;;;19.90;94.40;;;;;;4884601;29;20062;-74
2023/08/29 16:22:03;;;;;;;3.03;1.38;;;19.80;94.50;;;;;;4867969;29;20037;-74
2023/08/29 16:25:01;;;;;;;2.10;1.15;;;19.60;94.70;;;;;;4845485;29;20056;-74
2023/08/29 16:27:29;;;;;;;;;;;19.50;94.90;;;;;;4869026;29;20033;-75
2023/08/29 16:30:23;;;;;;;;;;;;;;;;;;;;;
2023/08/29 16:32:52;;;;;;;3.58;1.42;;;19.20;95.20;;;;;;4868073;29;20049;-75
2023/08/29 16:35:48;;;;;;;2.78;1.30;;;19.00;95.70;;;;;;4867961;29;20582;-75
2023/08/29 16:38:14;;;;;;;2.40;1.20;;;19.20;95.90;;;;;;4925468;29;20043;-74
2023/08/29 16:40:39;;;;;;;2.38;1.20;;;19.20;96.20;;;;;;4924635;29;20032;-75
2023/08/29 16:43:08;;;;;;;3.72;1.40;;;19.10;94.80;;;;;;4924532;29;20059;-75
2023/08/29 16:45:34;;;;;;;4.47;1.30;;;19.30;95.40;;;;;;4925827;29;20092;-75
2023/08/29 16:48:02;;;;;;;4.97;1.40;;;19.10;94.60;;;;;;4909793;29;20044;-74
2023/08/29 16:50:33;;;;;;;2.10;1.40;;;19.10;94.50;;;;;;4940620;29;20106;-74
2023/08/29 16:53:24;;;;;;;2.97;1.00;;;19.10;94.60;;;;;;4946870;29;20373;-75
2023/08/29 16:55:52;;;;;;;3.88;1.63;;;19.10;95.10;;;;;;4946992;29;20100;-75
2023/08/29 16:58:18;;;;;;;2.90;0.80;;;19.10;95.00;;;;;;4949308;29;20102;-74
2023/08/29 17:00:52;;;;;;;2.33;1.25;;;19.10;93.70;;;;;;4967217;29;20344;-74
2023/08/29 17:03:27;;;;;;;2.20;0.88;;;19.00;94.10;;;;;;4966889;29;20313;-79
2023/08/29 17:05:58;;;;;;;2.25;1.10;;;19.10;94.00;;;;;;4967071;29;20031;-78
2023/08/29 17:08:30;;;;;;;2.15;1.15;;;19.00;95.40;;;;;;4966242;29;20035;-76
2023/08/29 17:10:56;;;;;;;3.17;1.23;;;19.20;96.50;;;;;;4947447;29;20031;-77
2023/08/29 17:13:21;;;;;;;2.85;1.27;;;19.20;97.30;;;;;;4946953;29;20046;-76
2023/08/29 17:15:47;;;;;;;2.05;1.35;;;19.00;97.60;;;;;;4935818;29;20023;-75
2023/08/29 17:18:13;;;;;;;2.72;1.42;;;18.80;98.00;;;;;;4966217;29;20395;-75
2023/08/29 17:20:44;;;;;;;2.55;1.30;;;18.70;98.90;;;;;;4948750;29;20042;-74
2023/08/29 17:23:20;;;;;;;2.50;1.08;;;18.70;98.90;;;;;;4952057;29;20040;-75
2023/08/29 17:26:11;;;;;;;3.20;1.50;;;18.50;99.00;;;;;;4933655;29;20042;-75
2023/08/29 17:28:49;;;;;;;3.58;1.10;;;18.50;99.10;;;;;;4947467;29;20381;-76
2023/08/29 17:31:28;;;;;;;2.95;1.35;;;18.40;98.90;;;;;;4929221;29;20340;-75
2023/08/29 17:33:57;;;;;;;3.45;1.65;;;18.30;99.00;;;;;;4947267;29;20031;-77
2023/08/29 17:36:28;;;;;;;;;;;18.20;99.70;;;;;;4947172;29;20111;-75
2023/08/29 17:38:54;;;;;;;2.58;1.30;;;18.10;99.20;;;;;;4947660;29;19938;-76
2023/08/29 17:41:22;;;;;;;2.38;1.20;;;18.10;99.70;;;;;;4929918;29;20031;-75
2023/08/29 17:43:48;;;;;;;3.20;1.20;;;18.00;98.90;;;;;;4930237;29;20035;-77
2023/08/29 17:46:13;;;;;;;2.53;1.13;;;17.90;99.10;;;;;;4946887;29;20023;-75
2023/08/29 17:48:42;;;;;;;4.28;1.40;;;17.80;99.50;;;;;;4947389;29;20098;-75
2023/08/29 17:51:22;;;;;;;4.68;1.50;;;17.80;99.60;;;;;;4946894;29;20111;-76
2023/08/29 17:53:53;;;;;;;3.38;1.40;;;17.70;99.50;;;;;;4930491;29;20106;-75
2023/08/29 17:56:22;;;;;;;2.08;1.30;;;17.60;99.80;;;;;;4945612;29;20313;-75
2023/08/29 17:59:13;;;;;;;2.97;1.90;;;17.60;99.90;;;;;;4929146;29;20051;-76
2023/08/29 18:02:06;;;;;;;4.07;1.60;;;17.40;99.90;;;;;;4955895;29;20027;-76
2023/08/29 18:04:31;;;;;;;3.22;1.50;;;17.40;99.90;;;;;;4949094;29;20282;-76
2023/08/29 18:06:57;;;;;;;3.40;1.63;;;17.30;99.90;;;;;;4942167;29;20028;-75
2023/08/29 18:09:23;;;;;;;2.97;1.80;;;17.20;99.90;;;;;;4952774;29;20035;-76
2023/08/29 18:11:49;;;;;;;5.53;2.17;;;17.20;99.90;;;;;;4946245;29;20435;-76
2023/08/29 18:14:14;;;;;;;3.65;2.00;;;17.20;99.90;;;;;;4943308;29;20024;-77
2023/08/29 18:16:41;;;;;;;5.15;1.88;;;17.10;99.90;;;;;;4939404;29;20031;-75
2023/08/29 18:19:10;;;;;;;4.60;2.22;;;17.00;99.90;;;;;;4932998;29;20040;-75
2023/08/29 18:21:36;;;;;;;3.58;2.03;;;17.00;99.90;;;;;;4911777;29;20079;-76
2023/08/29 18:24:02;;;;;;;3.38;2.30;;;17.10;99.90;;;;;;4931563;29;20044;-76
2023/08/29 18:26:36;;;;;;;3.70;2.28;;;17.00;99.90;;;;;;4945679;29;20035;-76
2023/08/29 18:29:05;;;;;;;4.72;2.55;;;17.10;99.90;;;;;;4929234;29;20070;-76
2023/08/29 18:31:32;;;;;;;6.25;2.75;;;17.00;99.90;;;;;;4946292;29;20043;-74
2023/08/29 18:34:01;;;;;;;3.38;2.42;;;17.00;99.90;;;;;;4928865;29;20026;-75
2023/08/29 18:36:27;;;;;;;;;;;16.90;99.90;;;;;;4918818;29;20038;-75
2023/08/29 18:38:52;;;;;;;5.95;2.90;;;16.90;99.90;;;;;;4926672;29;19990;-75
2023/08/29 18:41:18;;;;;;;4.45;3.45;;;16.80;99.90;;;;;;4909735;29;20325;-75
2023/08/29 18:43:44;;;;;;;10.10;3.88;;;16.80;99.90;;;;;;4927092;29;20070;-75
2023/08/29 18:46:10;;;;;;;5.45;3.65;;;16.70;99.90;;;;;;4936353;29;20070;-79
2023/08/29 18:48:36;;;;;;;5.22;3.58;;;16.70;99.90;;;;;;4946003;29;20263;-77
2023/08/29 18:51:07;;;;;;;6.93;4.07;;;16.60;99.90;;;;;;4926878;29;20063;-76
2023/08/29 18:53:33;;;;;;;5.30;3.30;;;16.60;99.90;;;;;;4926866;29;20345;-77
2023/08/29 18:56:03;;;;;;;5.75;3.92;;;16.60;99.90;;;;;;4939372;29;20035;-77
2023/08/29 18:58:31;;;;;;;6.85;3.78;;;16.60;99.90;;;;;;4945412;29;20036;-75
2023/08/29 19:00:57;;;;;;;6.13;3.53;;;16.60;99.90;;;;;;4937903;29;20083;-75
2023/08/29 19:03:23;;;;;;;4.70;3.55;;;16.50;99.90;;;;;;4936604;29;20336;-77
2023/08/29 19:05:49;;;;;;;4.75;3.95;;;16.50;99.90;;;;;;4945856;29;20042;-80
2023/08/29 19:08:36;;;;;;;5.05;4.53;;;16.40;99.90;;;;;;4895882;29;20032;-79
2023/08/29 19:11:06;;;;;;;7.25;4.68;;;16.30;99.90;;;;;;4942401;29;20031;-75
2023/08/29 19:13:35;;;;;;;5.53;4.93;;;16.20;99.90;;;;;;4945435;29;20042;-79
2023/08/29 19:16:01;;;;;;;5.32;4.25;;;16.10;99.90;;;;;;4928404;29;20054;-76
2023/08/29 19:18:27;;;;;;;5.63;4.53;;;16.10;99.90;;;;;;4944786;29;20039;-75
2023/08/29 19:20:53;;;;;;;7.05;4.47;;;16.00;99.90;;;;;;4945702;29;20038;-75
2023/08/29 19:23:19;;;;;;;7.72;3.53;;;15.90;99.90;;;;;;4945077;29;20306;-75
2023/08/29 19:25:45;;;;;;;4.45;3.17;;;15.50;99.90;;;;;;4928564;29;20147;-75
2023/08/29 19:28:11;;;;;;;4.80;4.28;;;15.10;99.90;;;;;;4933559;29;20054;-75
2023/08/29 19:30:37;;;;;;;8.70;4.93;;;14.90;99.90;;;;;;4926680;29;20302;-74
2023/08/29 19:33:03;;;;;;;7.85;5.35;;;14.90;99.90;;;;;;4909380;29;20032;-76
2023/08/29 19:35:37;;;;;;;7.60;6.10;;;14.80;99.90;;;;;;4925589;29;20207;-76
2023/08/29 19:38:04;;;;;;;7.93;6.18;;;14.80;99.90;;;;;;4926191;29;20319;-75
2023/08/29 19:40:30;;;;;;;7.65;6.15;;;14.90;99.90;;;;;;4925987;29;20024;-76
2023/08/29 19:42:56;;;;;;;8.60;6.47;;;14.80;99.90;;;;;;4926185;29;20043;-76
2023/08/29 19:45:22;;;;;;;7.85;5.57;;;14.90;99.90;;;;;;4925869;29;20036;-74
2023/08/29 19:47:51;;;;;;;5.90;5.22;;;14.90;99.90;;;;;;4926479;29;20054;-76
2023/08/29 19:50:16;;;;;;;;;;;14.90;99.90;;;;;;4942627;29;20031;-76
2023/08/29 19:52:44;;;;;;;8.07;7.07;;;14.90;99.90;;;;;;4964178;29;19910;-75
2023/08/29 19:55:10;;;;;;;6.22;5.35;;;14.90;99.90;;;;;;4957513;29;20036;-75
2023/08/29 19:57:35;;;;;;;6.93;5.28;;;14.80;99.90;;;;;;4926274;29;20266;-76
2023/08/29 20:00:06;;;;;;;5.82;4.30;;;14.90;99.90;;;;;;4925792;29;20044;-74
2023/08/29 20:02:39;;;;;;;5.78;5.10;;;14.80;99.90;;;;;;4942420;29;20046;-74
2023/08/29 20:05:05;;;;;;;7.13;6.13;;;14.80;99.90;;;;;;4945199;29;20032;-74
2023/08/29 20:07:31;;;;;;;8.38;6.75;;;14.80;99.90;;;;;;4944275;29;20058;-74
2023/08/29 20:09:57;;;;;;;7.90;6.10;;;14.80;99.90;;;;;;4945254;29;20194;-75
2023/08/29 20:12:23;;;;;;;7.43;6.25;;;14.80;99.90;;;;;;4914439;29;20068;-75